Time;durP1;ratioP1;P1;durP2;ratioP2;P2;SDS_P1;SDS_P2;PMS_P1;PMS_P2;Temp;Humidity;BMP_temperature;BMP_pressure;BME280_temperature;BME280_humidity;BME280_pressure;Samples;Min_cycle;Max_cycle;Signal;HPM_P1;HPM_P2
2024/01/17 00:01:30;;;;;;;;;;;;;;;21.34;20.69;98052.44;4963046;28;1066;-75
2024/01/17 00:03:55;;;;;;;;;;;;;;;21.49;20.62;98052.88;4958697;29;995;-75
2024/01/17 00:06:21;;;;;;;;;;;;;;;21.58;20.34;98045.38;4958739;29;1730;-75
2024/01/17 00:08:47;;;;;;;;;;;;;;;21.77;20.14;98046.50;4955692;29;1740;-75
2024/01/17 00:11:12;;;;;;;;;;;;;;;21.13;20.64;98053.72;4939643;29;979;-74
2024/01/17 00:13:38;;;;;;;;;;;;;;;21.09;21.14;98058.69;4939840;29;1017;-75
2024/01/17 00:16:04;;;;;;;;;;;;;;;21.24;20.75;98048.63;4939549;29;1015;-75
2024/01/17 00:18:30;;;;;;;;;;;;;;;21.32;20.75;98050.06;4938634;29;1915;-75
2024/01/17 00:20:55;;;;;;;;;;;;;;;21.26;20.76;98051.81;4923352;29;1086;-75
2024/01/17 00:23:21;;;;;;;;;;;;;;;21.36;20.51;98049.19;4939576;29;989;-75
2024/01/17 00:25:47;;;;;;;;;;;;;;;21.78;19.98;98052.94;4941027;29;1010;-75
2024/01/17 00:28:14;;;;;;;;;;;;;;;21.66;20.24;98053.66;4958033;28;1344;-75
2024/01/17 00:30:39;;;;;;;;;;;;;;;21.51;20.24;98053.25;4975184;28;1073;-75
2024/01/17 00:33:05;;;;;;;;;;;;;;;20.94;20.91;98051.78;4982209;28;988;-75
2024/01/17 00:35:30;;;;;;;;;;;;;;;21.04;20.80;98050.72;4977291;28;1014;-75
2024/01/17 00:37:56;;;;;;;;;;;;;;;21.14;20.79;98048.88;4965548;28;1971;-75
2024/01/17 00:40:22;;;;;;;;;;;;;;;21.52;20.60;98040.69;4997231;28;1027;-75
2024/01/17 00:42:48;;;;;;;;;;;;;;;21.43;20.39;98032.81;4980521;28;1343;-75
2024/01/17 00:45:14;;;;;;;;;;;;;;;21.21;20.64;98026.06;4980389;28;1303;-75
2024/01/17 00:47:40;;;;;;;;;;;;;;;21.30;20.76;98021.41;4980113;28;1464;-75
2024/01/17 00:50:06;;;;;;;;;;;;;;;21.39;20.44;98014.31;4996626;28;1016;-75
2024/01/17 00:52:31;;;;;;;;;;;;;;;21.32;20.63;98021.75;4996918;28;1107;-76
2024/01/17 00:54:57;;;;;;;;;;;;;;;21.30;20.47;98029.91;4996553;28;1338;-75
2024/01/17 00:57:23;;;;;;;;;;;;;;;21.29;20.73;98016.16;4996909;28;961;-75
2024/01/17 00:59:48;;;;;;;;;;;;;;;21.33;20.69;98022.56;4996050;28;1915;-75
2024/01/17 01:02:14;;;;;;;;;;;;;;;21.41;20.34;98014.69;4980629;28;992;-75
2024/01/17 01:04:39;;;;;;;;;;;;;;;21.57;20.08;98011.84;4996392;28;1489;-75
2024/01/17 01:07:05;;;;;;;;;;;;;;;21.10;20.78;98017.84;4990977;28;1252;-75
2024/01/17 01:09:31;;;;;;;;;;;;;;;20.76;21.45;98007.72;5017951;28;860;-75
2024/01/17 01:11:56;;;;;;;;;;;;;;;21.07;20.73;97999.69;5015572;28;991;-75
2024/01/17 01:14:22;;;;;;;;;;;;;;;21.48;20.29;97998.31;5009158;28;1445;-75
2024/01/17 01:16:48;;;;;;;;;;;;;;;21.43;20.24;97992.38;4996273;28;1005;-75
2024/01/17 01:19:13;;;;;;;;;;;;;;;21.35;20.39;97977.63;4996141;28;1918;-75
2024/01/17 01:21:39;;;;;;;;;;;;;;;21.36;20.63;97982.06;4995965;28;1027;-75
2024/01/17 01:24:04;;;;;;;;;;;;;;;21.67;20.17;97984.47;5007612;28;1406;-76
2024/01/17 01:26:30;;;;;;;;;;;;;;;21.22;20.56;97991.66;5010258;28;1631;-75
2024/01/17 01:28:56;;;;;;;;;;;;;;;20.92;20.96;97977.88;4996157;28;1034;-75
2024/01/17 01:31:22;;;;;;;;;;;;;;;21.09;20.99;97979.47;4996129;28;967;-75
2024/01/17 01:33:47;;;;;;;;;;;;;;;21.48;20.54;97977.69;4995963;28;920;-76
2024/01/17 01:36:13;;;;;;;;;;;;;;;21.66;20.05;97982.88;5014544;28;1436;-75
2024/01/17 01:38:39;;;;;;;;;;;;;;;21.57;20.34;97980.69;5015520;28;1906;-75
2024/01/17 01:41:05;;;;;;;;;;;;;;;21.39;20.53;97978.31;5015640;28;1121;-75
2024/01/17 01:43:30;;;;;;;;;;;;;;;21.45;20.49;97985.06;5015383;28;977;-76
2024/01/17 01:46:16;;;;;;;;;;;;;;;21.65;20.12;97981.28;5013705;28;1328;-75
2024/01/17 01:48:42;;;;;;;;;;;;;;;21.52;20.40;97984.06;5015503;28;919;-75
2024/01/17 01:51:08;;;;;;;;;;;;;;;21.66;20.23;97982.88;5017738;28;845;-75
2024/01/17 01:53:33;;;;;;;;;;;;;;;21.51;20.44;97976.81;5015985;28;893;-75
2024/01/17 01:55:59;;;;;;;;;;;;;;;21.66;20.25;97966.69;5030585;28;1596;-75
2024/01/17 01:58:25;;;;;;;;;;;;;;;21.18;20.78;97971.16;5032192;28;1978;-75
2024/01/17 02:00:52;;;;;;;;;;;;;;;20.97;21.06;97966.03;5015924;28;914;-76
2024/01/17 02:03:17;;;;;;;;;;;;;;;21.18;20.63;97970.34;5016231;28;1253;-75
2024/01/17 02:05:43;;;;;;;;;;;;;;;21.34;20.75;97967.53;5030103;28;1466;-75
2024/01/17 02:08:09;;;;;;;;;;;;;;;21.47;20.35;97970.44;5015183;28;1483;-75
2024/01/17 02:10:34;;;;;;;;;;;;;;;21.42;20.58;97962.50;5034767;28;1110;-76
2024/01/17 02:13:00;;;;;;;;;;;;;;;21.42;20.32;97962.50;5035042;28;986;-75
2024/01/17 02:15:25;;;;;;;;;;;;;;;20.89;20.95;97958.97;5013370;28;1339;-75
2024/01/17 02:17:51;;;;;;;;;;;;;;;21.10;20.98;97958.44;4998467;28;1991;-75
2024/01/17 02:20:17;;;;;;;;;;;;;;;21.46;20.33;97951.88;5014923;28;1107;-75
2024/01/17 02:22:43;;;;;;;;;;;;;;;21.58;20.29;97953.97;4998663;28;1008;-75
2024/01/17 02:25:08;;;;;;;;;;;;;;;21.49;20.23;97950.97;4997123;28;1532;-75
2024/01/17 02:27:34;;;;;;;;;;;;;;;21.45;20.38;97950.25;5014845;28;953;-75
2024/01/17 02:29:59;;;;;;;;;;;;;;;21.44;20.39;97954.34;4978713;28;967;-76
2024/01/17 02:32:25;;;;;;;;;;;;;;;21.62;20.05;97960.34;4979026;28;1113;-76
2024/01/17 02:34:51;;;;;;;;;;;;;;;21.47;20.45;97959.91;4993545;28;1563;-75
2024/01/17 02:37:17;;;;;;;;;;;;;;;21.56;20.33;97953.63;4962661;28;1128;-75
2024/01/17 02:39:42;;;;;;;;;;;;;;;21.49;20.35;97953.81;4959197;28;1906;-75
2024/01/17 02:42:08;;;;;;;;;;;;;;;21.56;20.22;97950.78;4975270;28;975;-75
2024/01/17 02:44:33;;;;;;;;;;;;;;;21.21;20.54;97956.13;4974286;28;1413;-75
2024/01/17 02:46:59;;;;;;;;;;;;;;;20.95;20.88;97954.38;4974074;28;960;-75
2024/01/17 02:49:24;;;;;;;;;;;;;;;20.99;21.00;97953.03;4940195;28;1282;-75
2024/01/17 02:51:50;;;;;;;;;;;;;;;21.37;20.52;97948.88;4956160;29;1096;-75
2024/01/17 02:54:16;;;;;;;;;;;;;;;21.36;20.32;97947.28;4939146;29;1399;-76
2024/01/17 02:56:41;;;;;;;;;;;;;;;21.35;20.88;97945.69;4948494;29;1390;-75
2024/01/17 02:59:07;;;;;;;;;;;;;;;21.43;20.45;97949.94;4940055;29;1898;-75
2024/01/17 03:01:33;;;;;;;;;;;;;;;21.62;20.19;97945.38;4940481;29;1371;-75
2024/01/17 03:03:59;;;;;;;;;;;;;;;21.50;20.33;97935.56;4940089;29;924;-75
2024/01/17 03:06:25;;;;;;;;;;;;;;;21.63;20.13;97932.81;4973100;28;1058;-75
2024/01/17 03:08:50;;;;;;;;;;;;;;;21.09;21.08;97934.22;4943782;28;968;-75
2024/01/17 03:11:16;;;;;;;;;;;;;;;20.99;21.25;97930.41;4951288;28;1450;-75
2024/01/17 03:13:41;;;;;;;;;;;;;;;21.36;20.66;97935.97;4963270;28;1077;-75
2024/01/17 03:16:07;;;;;;;;;;;;;;;21.61;20.49;97933.25;4965129;28;988;-76
2024/01/17 03:18:32;;;;;;;;;;;;;;;21.39;20.52;97929.41;4999779;28;1967;-75
2024/01/17 03:20:58;;;;;;;;;;;;;;;21.49;20.51;97939.66;5001846;28;1512;-75
2024/01/17 03:23:23;;;;;;;;;;;;;;;21.56;20.36;97947.97;5017775;28;954;-75
2024/01/17 03:25:49;;;;;;;;;;;;;;;21.29;20.84;97942.56;5018144;28;1065;-75
2024/01/17 03:28:15;;;;;;;;;;;;;;;20.98;21.05;97940.13;5018079;28;1148;-75
2024/01/17 03:30:41;;;;;;;;;;;;;;;21.08;20.87;97938.25;5016574;28;1462;-75
2024/01/17 03:33:07;;;;;;;;;;;;;;;21.48;20.41;97941.69;5001396;28;925;-75
2024/01/17 03:35:33;;;;;;;;;;;;;;;21.67;20.31;97945.63;5000288;28;1456;-75
2024/01/17 03:37:59;;;;;;;;;;;;;;;21.57;20.69;97946.72;5016480;28;1981;-75
2024/01/17 03:40:24;;;;;;;;;;;;;;;21.72;20.21;97947.13;5000883;28;1322;-76
2024/01/17 03:42:50;;;;;;;;;;;;;;;21.75;20.45;97940.53;5000891;28;1480;-75
2024/01/17 03:45:16;;;;;;;;;;;;;;;21.31;20.85;97943.75;5017449;28;1008;-75
2024/01/17 03:47:42;;;;;;;;;;;;;;;21.05;20.99;97939.16;5016493;28;1376;-75
2024/01/17 03:50:07;;;;;;;;;;;;;;;21.16;21.17;97941.72;5017662;28;1054;-75
2024/01/17 03:52:33;;;;;;;;;;;;;;;21.48;20.71;97944.50;5017685;28;958;-75
2024/01/17 03:54:58;;;;;;;;;;;;;;;21.54;20.94;97948.38;5007542;28;1342;-75
2024/01/17 03:57:24;;;;;;;;;;;;;;;21.52;20.66;97955.75;4981532;28;1397;-75
2024/01/17 03:59:49;;;;;;;;;;;;;;;21.32;20.66;97953.84;4997741;28;2004;-75
2024/01/17 04:02:15;;;;;;;;;;;;;;;21.60;20.39;97948.63;4981647;28;962;-75
2024/01/17 04:04:41;;;;;;;;;;;;;;;21.46;20.59;97949.84;4984249;28;1373;-75
2024/01/17 04:07:08;;;;;;;;;;;;;;;21.43;20.70;97952.75;4997823;28;1227;-75
2024/01/17 04:09:34;;;;;;;;;;;;;;;21.65;20.64;97964.28;4997601;28;982;-75
2024/01/17 04:11:59;;;;;;;;;;;;;;;21.35;20.99;97959.84;5014058;28;968;-75
2024/01/17 04:14:25;;;;;;;;;;;;;;;20.91;21.52;97962.94;5017669;28;1486;-75
2024/01/17 04:16:51;;;;;;;;;;;;;;;21.24;21.08;97972.22;5017863;28;921;-75
2024/01/17 04:19:16;;;;;;;;;;;;;;;21.31;21.12;97963.56;5017927;28;1910;-75
2024/01/17 04:21:42;;;;;;;;;;;;;;;21.50;20.87;97975.19;5017739;28;911;-75
2024/01/17 04:24:07;;;;;;;;;;;;;;;21.40;20.84;97971.44;5001246;28;1568;-75
2024/01/17 04:26:33;;;;;;;;;;;;;;;21.64;20.63;97974.81;5034466;28;850;-75
2024/01/17 04:28:59;;;;;;;;;;;;;;;21.60;20.73;97979.78;5034524;28;954;-75
2024/01/17 04:31:27;;;;;;;;;;;;;;;21.70;20.63;97977.91;5019252;28;920;-75
2024/01/17 04:33:53;;;;;;;;;;;;;;;21.36;21.09;97981.25;5033886;28;1009;-75
2024/01/17 04:36:19;;;;;;;;;;;;;;;21.02;21.51;97976.81;5033340;28;1465;-75
2024/01/17 04:38:45;;;;;;;;;;;;;;;21.26;21.18;97983.88;5017549;28;1993;-75
2024/01/17 04:41:11;;;;;;;;;;;;;;;21.08;21.28;97977.88;5034005;28;972;-75
2024/01/17 04:43:37;;;;;;;;;;;;;;;21.41;21.24;97983.56;5034352;28;898;-75
2024/01/17 04:46:02;;;;;;;;;;;;;;;21.63;20.71;97990.22;5018821;28;1397;-76
2024/01/17 04:48:28;;;;;;;;;;;;;;;21.40;20.94;97988.44;5018407;28;991;-75
2024/01/17 04:50:58;;;;;;;;;;;;;;;21.06;21.51;97991.66;5017316;28;1736;-76
2024/01/17 04:53:24;;;;;;;;;;;;;;;21.00;21.58;97987.78;4980301;28;1146;-76
2024/01/17 04:55:50;;;;;;;;;;;;;;;21.41;20.98;97983.56;4966532;28;1691;-75
2024/01/17 04:58:16;;;;;;;;;;;;;;;21.45;20.98;97985.06;4986288;28;1898;-75
2024/01/17 05:00:47;;;;;;;;;;;;;;;21.39;21.24;97991.69;4980637;28;987;-75
2024/01/17 05:03:14;;;;;;;;;;;;;;;21.57;20.73;97997.69;4981187;28;1135;-75
2024/01/17 05:05:45;;;;;;;;;;;;;;;21.69;20.71;97988.44;4957292;28;1112;-75
2024/01/17 05:08:11;;;;;;;;;;;;;;;21.10;21.53;97992.38;4941696;29;1004;-75
2024/01/17 05:10:37;;;;;;;;;;;;;;;21.14;21.28;97998.75;4957737;29;1083;-75
2024/01/17 05:13:03;;;;;;;;;;;;;;;21.52;20.76;97995.38;4957489;28;1022;-75
2024/01/17 05:15:28;;;;;;;;;;;;;;;21.38;21.07;98001.41;4941427;29;1223;-75
2024/01/17 05:17:54;;;;;;;;;;;;;;;21.56;20.77;98008.22;4957097;29;1906;-75
2024/01/17 05:20:20;;;;;;;;;;;;;;;21.70;20.52;98004.19;4941608;29;780;-75
2024/01/17 05:22:45;;;;;;;;;;;;;;;21.01;21.59;98017.66;4957476;28;1074;-75
2024/01/17 05:25:11;;;;;;;;;;;;;;;20.94;21.59;98020.66;4991063;28;997;-75
2024/01/17 05:27:37;;;;;;;;;;;;;;;21.38;21.26;98012.72;4979832;28;986;-75
2024/01/17 05:30:04;;;;;;;;;;;;;;;21.59;20.98;98018.63;4980019;28;973;-75
2024/01/17 05:32:29;;;;;;;;;;;;;;;21.62;20.90;98016.97;4975846;28;963;-76
2024/01/17 05:34:55;;;;;;;;;;;;;;;21.48;20.90;98023.78;4976333;28;944;-75
2024/01/17 05:37:21;;;;;;;;;;;;;;;21.51;21.05;98027.78;4976113;28;1119;-75
2024/01/17 05:39:47;;;;;;;;;;;;;;;21.40;21.07;98021.56;4976351;28;1976;-75
2024/01/17 05:42:13;;;;;;;;;;;;;;;21.71;20.91;98025.63;4982191;28;1854;-75
2024/01/17 05:44:39;;;;;;;;;;;;;;;21.47;20.98;98015.75;5015372;28;961;-75
2024/01/17 05:47:05;;;;;;;;;;;;;;;21.49;20.81;98019.72;5015405;28;899;-75
2024/01/17 05:49:30;;;;;;;;;;;;;;;21.17;21.37;98023.31;5015271;28;939;-74
2024/01/17 05:51:56;;;;;;;;;;;;;;;21.09;21.42;98021.91;4998997;28;1163;-75
2024/01/17 05:54:21;;;;;;;;;;;;;;;21.35;21.34;98019.28;5015060;28;880;-75
2024/01/17 05:56:47;;;;;;;;;;;;;;;21.51;20.86;98028.56;5015138;28;1080;-75
2024/01/17 05:59:13;;;;;;;;;;;;;;;21.42;21.06;98036.09;5015183;28;1981;-75
2024/01/17 06:01:39;;;;;;;;;;;;;;;21.36;21.34;98041.50;5015214;28;781;-75
2024/01/17 06:04:04;;;;;;;;;;;;;;;21.28;21.11;98059.84;5006303;28;1116;-76
2024/01/17 06:06:30;;;;;;;;;;;;;;;21.69;20.80;98056.41;4997567;28;1286;-73
2024/01/17 06:08:55;;;;;;;;;;;;;;;21.42;21.05;98050.25;5003804;28;1282;-74
2024/01/17 06:11:21;;;;;;;;;;;;;;;21.11;21.28;98061.88;4969034;28;1272;-74
2024/01/17 06:13:48;;;;;;;;;;;;;;;21.08;21.75;98059.91;4954759;28;1304;-74
2024/01/17 06:16:13;;;;;;;;;;;;;;;21.43;21.22;98065.97;4994844;28;1065;-74
2024/01/17 06:18:39;;;;;;;;;;;;;;;21.58;20.83;98064.38;4962893;28;1902;-74
2024/01/17 06:21:05;;;;;;;;;;;;;;;21.37;21.13;98067.75;4947062;28;1125;-74
2024/01/17 06:23:30;;;;;;;;;;;;;;;21.49;21.14;98072.69;4995312;28;1026;-74
2024/01/17 06:25:57;;;;;;;;;;;;;;;21.76;20.48;98069.56;4963335;28;935;-75
2024/01/17 06:28:22;;;;;;;;;;;;;;;21.25;21.32;98072.84;4979018;28;1083;-74
2024/01/17 06:30:48;;;;;;;;;;;;;;;20.98;21.98;98075.88;4965121;28;1211;-74
2024/01/17 06:33:14;;;;;;;;;;;;;;;21.36;21.27;98072.63;5014381;28;917;-74
2024/01/17 06:35:39;;;;;;;;;;;;;;;21.65;20.71;98060.56;5014500;28;914;-74
2024/01/17 06:38:05;;;;;;;;;;;;;;;21.57;20.94;98059.97;4998093;28;1979;-74
2024/01/17 06:40:31;;;;;;;;;;;;;;;21.62;20.91;98070.75;5014490;28;970;-74
2024/01/17 06:42:57;;;;;;;;;;;;;;;21.55;21.21;98073.75;4982042;28;1274;-74
2024/01/17 06:45:24;;;;;;;;;;;;;;;21.70;20.89;98072.16;4965297;28;1061;-74
2024/01/17 06:47:50;;;;;;;;;;;;;;;21.35;21.26;98075.88;4982313;28;974;-74
2024/01/17 06:50:15;;;;;;;;;;;;;;;20.98;21.90;98069.44;4959400;28;1117;-74
2024/01/17 06:52:41;;;;;;;;;;;;;;;21.31;21.22;98065.47;4975250;28;980;-74
2024/01/17 06:55:07;;;;;;;;;;;;;;;21.56;21.13;98075.38;4955875;28;1124;-74
2024/01/17 06:57:33;;;;;;;;;;;;;;;21.49;21.20;98075.53;4940260;29;984;-74
2024/01/17 06:59:58;;;;;;;;;;;;;;;21.55;20.88;98073.75;4958962;28;1975;-74
2024/01/17 07:02:24;;;;;;;;;;;;;;;21.52;21.18;98069.78;4975418;28;966;-74
2024/01/17 07:04:49;;;;;;;;;;;;;;;21.44;21.32;98067.56;4959192;28;1348;-75
2024/01/17 07:07:15;;;;;;;;;;;;;;;21.21;21.31;98072.13;4959109;28;989;-75
2024/01/17 07:09:41;;;;;;;;;;;;;;;20.80;21.94;98076.31;4975357;28;972;-75
2024/01/17 07:12:07;;;;;;;;;;;;;;;21.19;21.33;98085.94;4959298;28;988;-74
2024/01/17 07:14:32;;;;;;;;;;;;;;;21.57;20.94;98076.97;4939813;29;1406;-75
2024/01/17 07:16:58;;;;;;;;;;;;;;;21.55;21.23;98073.75;4955656;29;1054;-75
2024/01/17 07:19:23;;;;;;;;;;;;;;;21.70;20.69;98069.31;4956129;29;1914;-75
2024/01/17 07:21:49;;;;;;;;;;;;;;;21.57;21.15;98072.09;4923903;29;1221;-74
2024/01/17 07:24:15;;;;;;;;;;;;;;;21.65;20.81;98075.53;4924336;29;1125;-75
2024/01/17 07:26:40;;;;;;;;;;;;;;;21.40;21.25;98075.34;4916180;28;897;-75
2024/01/17 07:29:06;;;;;;;;;;;;;;;21.03;21.74;98071.75;4974885;28;995;-75
2024/01/17 07:31:32;;;;;;;;;;;;;;;21.40;21.27;98061.19;4959227;28;1007;-75
2024/01/17 07:33:58;;;;;;;;;;;;;;;21.72;20.98;98066.06;4975216;28;915;-75
2024/01/17 07:36:24;;;;;;;;;;;;;;;21.71;20.70;98059.59;4959191;28;1275;-75
2024/01/17 07:38:49;;;;;;;;;;;;;;;21.53;21.09;98065.72;4975300;28;1969;-75
2024/01/17 07:41:15;;;;;;;;;;;;;;;21.61;21.14;98074.84;4975132;28;1043;-74
2024/01/17 07:43:40;;;;;;;;;;;;;;;21.64;20.99;98071.09;4974672;28;973;-74
2024/01/17 07:46:06;;;;;;;;;;;;;;;21.32;21.33;98072.69;4972978;28;959;-74
2024/01/17 07:48:31;;;;;;;;;;;;;;;20.97;21.82;98079.16;4958463;28;1164;-74
2024/01/17 07:50:57;;;;;;;;;;;;;;;21.18;21.63;98077.88;4975131;28;974;-74
2024/01/17 07:53:24;;;;;;;;;;;;;;;21.44;21.25;98074.03;4974719;28;1021;-74
2024/01/17 07:55:49;;;;;;;;;;;;;;;21.66;20.77;98076.31;4976591;28;928;-74
2024/01/17 07:58:16;;;;;;;;;;;;;;;21.43;21.03;98082.97;4991094;28;1985;-74
2024/01/17 08:00:41;;;;;;;;;;;;;;;21.64;20.96;98076.75;4968523;28;917;-74
2024/01/17 08:03:07;;;;;;;;;;;;;;;21.78;20.80;98065.06;5017454;28;1067;-74
2024/01/17 08:05:33;;;;;;;;;;;;;;;21.36;21.19;98066.97;5016957;28;1302;-75
2024/01/17 08:07:59;;;;;;;;;;;;;;;20.99;21.58;98071.84;5001064;28;1231;-75
2024/01/17 08:10:25;;;;;;;;;;;;;;;21.07;21.89;98069.63;5017004;28;993;-74
2024/01/17 08:12:51;;;;;;;;;;;;;;;21.44;21.46;98070.41;5017260;28;985;-75
2024/01/17 08:15:16;;;;;;;;;;;;;;;21.46;21.29;98065.13;5016948;28;992;-75
2024/01/17 08:17:43;;;;;;;;;;;;;;;21.53;21.01;98064.91;5016931;28;1064;-75
2024/01/17 08:20:12;;;;;;;;;;;;;;;21.63;21.01;98041.19;5018700;28;1987;-74
2024/01/17 08:22:39;;;;;;;;;;;;;;;21.44;21.16;98050.59;5001720;28;1230;-74
2024/01/17 08:25:04;;;;;;;;;;;;;;;21.79;21.00;98049.66;5018080;28;904;-75
2024/01/17 08:27:30;;;;;;;;;;;;;;;21.33;21.26;98060.13;5018910;28;939;-75
2024/01/17 08:29:55;;;;;;;;;;;;;;;21.18;21.52;98058.84;5019288;28;882;-75
2024/01/17 08:32:21;;;;;;;;;;;;;;;21.12;21.48;98063.47;5017770;28;1056;-75
2024/01/17 08:34:47;;;;;;;;;;;;;;;21.60;21.17;98053.41;5000833;28;1265;-75
2024/01/17 08:37:13;;;;;;;;;;;;;;;21.60;20.87;98042.06;5001624;28;1430;-75
2024/01/17 08:39:38;;;;;;;;;;;;;;;21.65;21.00;98044.38;5017486;28;1894;-74
2024/01/17 08:42:04;;;;;;;;;;;;;;;21.69;21.06;98038.63;5017272;28;1481;-74
2024/01/17 08:44:30;;;;;;;;;;;;;;;21.57;20.90;98054.31;4985136;28;1131;-74
2024/01/17 08:46:55;;;;;;;;;;;;;;;21.13;21.61;98042.41;5001605;28;1069;-75
2024/01/17 08:49:21;;;;;;;;;;;;;;;21.00;22.03;98041.53;5018421;28;897;-74
2024/01/17 08:51:47;;;;;;;;;;;;;;;21.11;21.87;98036.41;5017387;28;983;-74
2024/01/17 08:54:12;;;;;;;;;;;;;;;21.57;21.35;98031.66;5017069;28;944;-75
2024/01/17 08:56:38;;;;;;;;;;;;;;;21.59;21.35;98035.63;5017071;28;979;-75
2024/01/17 08:59:04;;;;;;;;;;;;;;;21.40;21.51;98028.06;5017203;28;1977;-74
2024/01/17 09:01:29;;;;;;;;;;;;;;;21.45;21.26;98023.88;5018617;28;873;-75
2024/01/17 09:03:55;;;;;;;;;;;;;;;21.39;21.41;98023.59;5017167;28;918;-74
2024/01/17 09:06:20;;;;;;;;;;;;;;;21.24;21.36;98028.81;5016656;28;1125;-74
2024/01/17 09:08:46;;;;;;;;;;;;;;;21.00;22.04;98024.56;5016678;28;908;-74
2024/01/17 09:11:12;;;;;;;;;;;;;;;21.18;21.81;98016.41;5018203;28;926;-74
2024/01/17 09:13:38;;;;;;;;;;;;;;;21.49;21.22;98014.03;5017069;28;958;-75
2024/01/17 09:16:05;;;;;;;;;;;;;;;21.71;20.85;98008.63;5017751;28;985;-75
2024/01/17 09:18:30;;;;;;;;;;;;;;;21.95;20.67;98005.53;4996004;28;1977;-75
2024/01/17 09:20:56;;;;;;;;;;;;;;;21.41;21.27;98000.53;4980066;28;1175;-75
2024/01/17 09:23:23;;;;;;;;;;;;;;;21.14;21.48;98004.41;4979779;28;982;-75
2024/01/17 09:25:49;;;;;;;;;;;;;;;21.35;21.53;98002.28;4963248;28;1565;-75
2024/01/17 09:28:15;;;;;;;;;;;;;;;21.70;21.02;97994.91;4995711;28;964;-75
2024/01/17 09:30:40;;;;;;;;;;;;;;;21.69;21.20;98005.44;4996042;28;1474;-75
2024/01/17 09:33:06;;;;;;;;;;;;;;;21.47;21.28;97999.56;4995034;28;1143;-75
2024/01/17 09:35:35;;;;;;;;;;;;;;;21.61;21.17;97998.38;4994930;28;1064;-74
2024/01/17 09:38:00;;;;;;;;;;;;;;;21.16;21.21;97919.09;4979200;28;1907;-74
2024/01/17 09:40:26;;;;;;;;;;;;;;;21.60;21.19;97991.09;4979446;28;922;-74
2024/01/17 09:42:52;;;;;;;;;;;;;;;21.28;21.56;97986.25;4979453;28;1232;-75
2024/01/17 09:45:17;;;;;;;;;;;;;;;21.21;21.64;97984.41;4995607;28;998;-74
2024/01/17 09:47:43;;;;;;;;;;;;;;;21.27;21.55;97968.50;4979407;28;1167;-74
2024/01/17 09:50:08;;;;;;;;;;;;;;;21.48;21.51;97972.81;4995155;28;961;-75
2024/01/17 09:52:34;;;;;;;;;;;;;;;21.62;21.40;97968.03;4979396;28;948;-75
2024/01/17 09:55:00;;;;;;;;;;;;;;;21.73;20.97;97966.50;4981397;28;1190;-75
2024/01/17 09:57:25;;;;;;;;;;;;;;;21.63;21.27;97961.91;5017137;28;953;-74
2024/01/17 09:59:58;;;;;;;;;;;;;;;21.30;21.48;97950.66;5015829;28;1906;-75
2024/01/17 10:02:24;;;;;;;;;;;;;;;21.02;22.11;97948.53;4999572;28;917;-74
2024/01/17 10:04:49;;;;;;;;;;;;;;;21.27;21.81;97940.19;5015869;28;1386;-75
2024/01/17 10:07:17;;;;;;;;;;;;;;;21.64;21.27;97935.19;5015671;28;926;-74
2024/01/17 10:09:44;;;;;;;;;;;;;;;21.57;21.42;97918.41;5015780;28;952;-74
2024/01/17 10:12:09;;;;;;;;;;;;;;;21.75;21.33;97917.88;5016721;28;899;-74
2024/01/17 10:14:35;;;;;;;;;;;;;;;21.33;21.78;97910.13;5016022;28;913;-75
2024/01/17 10:17:01;;;;;;;;;;;;;;;21.05;22.21;97905.22;5015358;28;981;-74
2024/01/17 10:19:27;;;;;;;;;;;;;;;21.37;21.53;97904.38;5015586;28;1898;-74
2024/01/17 10:21:52;;;;;;;;;;;;;;;21.42;21.84;97894.56;5014827;28;958;-74
2024/01/17 10:24:18;;;;;;;;;;;;;;;21.89;21.00;97891.19;5015255;28;1019;-71
2024/01/17 10:26:44;;;;;;;;;;;;;;;21.87;21.21;97885.22;5015470;28;1275;-72
2024/01/17 10:29:12;;;;;;;;;;;;;;;22.57;20.49;97882.22;5015482;28;1011;-75
2024/01/17 10:31:41;;;;;;;;;;;;;;;22.73;20.23;97881.28;5015382;28;938;-70
2024/01/17 10:34:09;;;;;;;;;;;;;;;22.42;20.53;97891.63;5014772;28;1028;-70
2024/01/17 10:36:41;;;;;;;;;;;;;;;22.36;20.84;97883.69;5014805;28;949;-70
2024/01/17 10:39:07;;;;;;;;;;;;;;;22.35;20.99;97872.81;5014664;28;1906;-70
2024/01/17 10:41:32;;;;;;;;;;;;;;;22.41;20.59;97865.31;5015302;28;1078;-70
2024/01/17 10:44:02;;;;;;;;;;;;;;;22.59;20.55;97868.38;5016209;28;942;-70
2024/01/17 10:46:27;;;;;;;;;;;;;;;22.36;20.72;97871.56;5016411;28;980;-74
2024/01/17 10:48:53;;;;;;;;;;;;;;;21.81;21.39;97873.59;5014707;28;917;-74
2024/01/17 10:51:22;;;;;;;;;;;;;;;21.23;22.50;97877.22;5015047;28;897;-74
2024/01/17 10:53:49;;;;;;;;;;;;;;;21.02;22.55;97867.28;5015333;28;936;-74
2024/01/17 10:56:19;;;;;;;;;;;;;;;20.95;22.58;97861.03;4999093;28;959;-73
2024/01/17 10:58:47;;;;;;;;;;;;;;;21.62;21.79;97869.72;4977919;28;1903;-74
2024/01/17 11:01:14;;;;;;;;;;;;;;;21.70;21.59;97861.81;4994533;28;988;-74
2024/01/17 11:03:39;;;;;;;;;;;;;;;21.72;21.84;97856.50;4977250;28;1076;-73
2024/01/17 11:06:05;;;;;;;;;;;;;;;21.72;21.64;97848.00;4977804;28;1146;-73
2024/01/17 11:08:31;;;;;;;;;;;;;;;21.72;21.71;97851.63;4994365;28;1041;-74
2024/01/17 11:10:57;;;;;;;;;;;;;;;21.82;21.35;97844.84;4978109;28;1009;-74
2024/01/17 11:13:24;;;;;;;;;;;;;;;21.45;21.83;97832.19;4978199;28;1004;-73
2024/01/17 11:15:49;;;;;;;;;;;;;;;21.23;22.40;97831.94;4978118;28;1192;-74
2024/01/17 11:18:15;;;;;;;;;;;;;;;21.14;22.45;97826.16;4977801;28;1902;-74
2024/01/17 11:20:40;;;;;;;;;;;;;;;21.48;21.93;97822.00;4977563;28;1073;-73
2024/01/17 11:23:09;;;;;;;;;;;;;;;21.32;22.15;97829.31;4977867;28;1194;-73
2024/01/17 11:25:50;;;;;;;;;;;;;;;21.53;22.06;97839.22;4977753;28;945;-74
2024/01/17 11:28:22;;;;;;;;;;;;;;;21.76;21.69;97835.34;4977650;28;991;-73
2024/01/17 11:30:52;;;;;;;;;;;;;;;21.76;21.70;97832.50;5014563;28;939;-74
2024/01/17 11:33:18;;;;;;;;;;;;;;;21.87;21.38;97834.22;5002041;28;826;-74
2024/01/17 11:35:48;;;;;;;;;;;;;;;21.46;22.12;97838.66;5017208;28;1363;-74
2024/01/17 11:38:15;;;;;;;;;;;;;;;21.11;22.34;97824.22;5002055;28;1902;-74
2024/01/17 11:40:41;;;;;;;;;;;;;;;21.16;22.45;97825.72;5018313;28;974;-73
2024/01/17 11:43:07;;;;;;;;;;;;;;;21.32;22.06;97818.00;5018211;28;926;-74
2024/01/17 11:45:33;;;;;;;;;;;;;;;21.56;21.83;97803.56;5001766;28;1529;-73
2024/01/17 11:48:10;;;;;;;;;;;;;;;21.53;21.81;97815.78;5019273;28;1331;-74
2024/01/17 11:50:37;;;;;;;;;;;;;;;21.71;21.81;97799.06;5001582;28;923;-73
2024/01/17 11:53:03;;;;;;;;;;;;;;;21.35;22.23;97798.50;5018213;28;900;-74
2024/01/17 11:55:32;;;;;;;;;;;;;;;21.27;22.09;97804.34;5018003;28;1002;-74
2024/01/17 11:57:59;;;;;;;;;;;;;;;21.56;21.82;97792.25;5017644;28;1029;-74
2024/01/17 12:00:25;;;;;;;;;;;;;;;21.48;21.96;97802.97;5019063;28;1992;-74
2024/01/17 12:02:50;;;;;;;;;;;;;;;21.44;22.03;97798.66;5001712;28;1071;-74
2024/01/17 12:05:16;;;;;;;;;;;;;;;21.68;21.86;97791.47;5026650;28;1315;-73
2024/01/17 12:07:49;;;;;;;;;;;;;;;21.84;21.47;97797.03;4980685;28;938;-74
2024/01/17 12:10:15;;;;;;;;;;;;;;;21.92;21.30;97799.66;4981585;28;851;-74
2024/01/17 12:12:42;;;;;;;;;;;;;;;21.60;21.93;97798.56;4977595;28;1493;-74
2024/01/17 12:15:09;;;;;;;;;;;;;;;21.78;21.82;97798.84;4961476;28;946;-74
2024/01/17 12:17:38;;;;;;;;;;;;;;;21.75;21.84;97796.13;4945427;28;1217;-74
2024/01/17 12:20:06;;;;;;;;;;;;;;;21.26;22.32;97791.47;4977064;28;1982;-74
2024/01/17 12:22:32;;;;;;;;;;;;;;;21.22;22.17;97796.41;4961809;28;868;-74
2024/01/17 12:24:58;;;;;;;;;;;;;;;21.41;22.08;97796.75;4929089;28;1220;-74
2024/01/17 12:27:24;;;;;;;;;;;;;;;21.56;21.90;97792.25;4945311;28;1164;-73
2024/01/17 12:29:54;;;;;;;;;;;;;;;21.88;21.50;97791.28;4977220;28;731;-73
2024/01/17 12:32:20;;;;;;;;;;;;;;;21.53;21.79;97796.75;4923079;29;955;-75
2024/01/17 12:34:45;;;;;;;;;;;;;;;21.22;22.46;97796.41;4916179;29;1144;-74
2024/01/17 12:37:11;;;;;;;;;;;;;;;21.44;22.22;97796.63;4929542;29;1311;-74
2024/01/17 12:39:37;;;;;;;;;;;;;;;21.57;21.87;97794.63;4912577;29;1911;-73
2024/01/17 12:42:03;;;;;;;;;;;;;;;21.83;21.41;97792.63;4928836;29;1357;-74
2024/01/17 12:44:30;;;;;;;;;;;;;;;21.87;21.73;97801.03;4940037;28;1331;-73
2024/01/17 12:46:56;;;;;;;;;;;;;;;21.85;21.48;97804.28;4979869;28;1281;-74
2024/01/17 12:49:21;;;;;;;;;;;;;;;21.89;21.25;97803.41;4995806;28;1427;-74
2024/01/17 12:51:47;;;;;;;;;;;;;;;21.36;22.11;97800.13;4976745;28;1171;-73
2024/01/17 12:54:17;;;;;;;;;;;;;;;21.02;22.51;97812.75;4995881;28;1285;-74